createdAt,value
2018-08-28T00:01:08.181Z,4.30
2018-08-28T00:03:36.335Z,4.80
2018-08-28T00:06:04.565Z,5.63
2018-08-28T00:08:32.778Z,4.30
2018-08-28T00:11:00.929Z,5.33
2018-08-28T00:13:29.149Z,4.85
2018-08-28T00:15:57.342Z,5.22
2018-08-28T00:18:25.487Z,4.90
2018-08-28T00:20:53.693Z,4.75
2018-08-28T00:23:21.891Z,5.10
2018-08-28T00:25:50.186Z,5.87
2018-08-28T00:28:18.336Z,4.90
2018-08-28T00:30:46.538Z,4.50
2018-08-28T00:33:14.688Z,4.73
2018-08-28T00:35:42.801Z,4.47
2018-08-28T00:38:11.008Z,4.47
2018-08-28T00:40:39.149Z,4.70
2018-08-28T00:43:08.268Z,4.30
2018-08-28T00:45:36.417Z,4.70
2018-08-28T00:48:04.536Z,5.00
2018-08-28T00:50:32.712Z,4.43
2018-08-28T00:53:00.862Z,3.80
2018-08-28T00:55:29.002Z,4.30
2018-08-28T00:57:57.124Z,4.60
2018-08-28T01:00:25.243Z,4.53
2018-08-28T01:02:53.385Z,4.90
2018-08-28T01:05:23.783Z,4.77
2018-08-28T01:07:52.485Z,4.50
2018-08-28T01:10:21.016Z,4.72
2018-08-28T01:12:49.138Z,4.22
2018-08-28T01:15:17.244Z,3.97
2018-08-28T01:17:45.405Z,4.75
2018-08-28T01:20:13.527Z,4.67
2018-08-28T01:22:41.630Z,4.30
2018-08-28T01:25:09.714Z,4.80
2018-08-28T01:27:37.860Z,4.73
2018-08-28T01:30:06.017Z,3.77
2018-08-28T01:32:34.160Z,4.47
2018-08-28T01:35:02.352Z,5.20
2018-08-28T01:37:30.470Z,4.00
2018-08-28T01:39:58.590Z,4.03
2018-08-28T01:42:26.716Z,3.60
2018-08-28T01:44:54.811Z,4.70
2018-08-28T01:47:23.139Z,4.77
2018-08-28T01:49:51.648Z,4.60
2018-08-28T01:52:20.218Z,4.60
2018-08-28T01:54:48.391Z,4.77
2018-08-28T01:57:16.525Z,5.30
2018-08-28T01:59:44.741Z,4.17
2018-08-28T02:02:12.906Z,4.87
2018-08-28T02:04:41.023Z,3.97
2018-08-28T02:07:09.151Z,4.53
2018-08-28T02:09:37.262Z,4.27
2018-08-28T02:12:05.349Z,4.00
2018-08-28T02:14:33.480Z,4.37
2018-08-28T02:17:01.617Z,5.70
2018-08-28T02:19:29.725Z,6.43
2018-08-28T02:21:57.852Z,4.30
2018-08-28T02:24:26.091Z,4.50
2018-08-28T02:26:54.214Z,5.37
2018-08-28T02:29:22.300Z,4.90
2018-08-28T02:31:50.395Z,4.37
2018-08-28T02:34:18.517Z,4.33
2018-08-28T02:36:46.628Z,5.10
2018-08-28T02:39:14.743Z,4.70
2018-08-28T02:41:42.854Z,4.40
2018-08-28T02:44:11.032Z,5.40
2018-08-28T02:46:39.245Z,5.30
2018-08-28T02:49:07.723Z,4.53
2018-08-28T02:51:37.264Z,4.20
2018-08-28T02:54:05.354Z,4.67
2018-08-28T02:56:33.456Z,4.77
2018-08-28T02:59:01.592Z,5.07
2018-08-28T03:01:29.720Z,4.93
2018-08-28T03:03:57.885Z,4.70
2018-08-28T03:06:27.551Z,6.15
2018-08-28T03:08:56.655Z,4.95
2018-08-28T03:11:24.795Z,5.47
2018-08-28T03:13:52.910Z,4.80
2018-08-28T03:16:21.053Z,4.92
2018-08-28T03:18:49.260Z,5.80
2018-08-28T03:21:17.358Z,4.50
2018-08-28T03:23:45.521Z,5.33
2018-08-28T03:26:13.651Z,4.30
2018-08-28T03:28:41.822Z,5.00
2018-08-28T03:31:09.972Z,5.20
2018-08-28T03:33:38.152Z,5.05
2018-08-28T03:36:06.275Z,4.30
2018-08-28T03:38:34.441Z,4.30
2018-08-28T03:41:02.512Z,4.67
2018-08-28T03:43:30.672Z,5.33
2018-08-28T03:45:58.786Z,4.03
2018-08-28T03:48:26.917Z,4.80
2018-08-28T03:50:55.008Z,4.87
2018-08-28T03:53:23.076Z,4.78
2018-08-28T03:55:51.224Z,5.50
2018-08-28T03:58:19.369Z,5.37
2018-08-28T04:00:47.699Z,4.47
2018-08-28T04:03:15.795Z,5.50
2018-08-28T04:05:43.978Z,4.63
2018-08-28T04:08:12.194Z,5.40
2018-08-28T04:10:40.292Z,4.90
2018-08-28T04:13:08.435Z,5.00
2018-08-28T04:15:36.608Z,5.60
2018-08-28T04:18:04.760Z,5.33
2018-08-28T04:20:32.911Z,5.43
2018-08-28T04:23:01.011Z,6.13
2018-08-28T04:25:29.100Z,5.47
2018-08-28T04:27:57.245Z,4.87
2018-08-28T04:30:25.416Z,5.27
2018-08-28T04:32:53.495Z,5.87
2018-08-28T04:35:21.664Z,5.23
2018-08-28T04:37:49.780Z,5.83
2018-08-28T04:40:18.048Z,5.70
2018-08-28T04:42:46.271Z,5.77
2018-08-28T04:45:14.405Z,5.23
2018-08-28T04:47:42.567Z,5.30
2018-08-28T04:50:10.701Z,5.00
2018-08-28T04:52:38.797Z,5.07
2018-08-28T04:55:06.958Z,5.30
2018-08-28T04:57:35.285Z,5.40
2018-08-28T05:00:04.768Z,5.30
2018-08-28T05:02:37.318Z,6.10
2018-08-28T05:05:07.795Z,5.15
2018-08-28T05:07:35.959Z,5.67
2018-08-28T05:10:04.512Z,5.60
2018-08-28T05:12:32.625Z,5.77
2018-08-28T05:15:00.760Z,5.65
2018-08-28T05:17:28.907Z,6.10
2018-08-28T05:19:57.063Z,5.97
2018-08-28T05:22:25.710Z,6.30
2018-08-28T05:24:53.977Z,6.17
2018-08-28T05:27:22.449Z,5.45
2018-08-28T05:29:50.581Z,6.00
2018-08-28T05:32:18.736Z,4.87
2018-08-28T05:34:46.907Z,5.70
2018-08-28T05:37:15.048Z,5.00
2018-08-28T05:39:43.189Z,4.90
2018-08-28T05:42:11.321Z,6.30
2018-08-28T05:44:39.416Z,5.97
2018-08-28T05:47:08.718Z,5.50
2018-08-28T05:49:36.903Z,5.60
2018-08-28T05:52:05.047Z,5.50
2018-08-28T05:54:33.184Z,5.80
2018-08-28T05:57:01.328Z,6.70
2018-08-28T05:59:29.514Z,6.90
2018-08-28T06:01:57.602Z,6.40
2018-08-28T06:04:25.713Z,6.65
2018-08-28T06:06:53.841Z,6.50
2018-08-28T06:09:21.951Z,5.90
2018-08-28T06:11:50.113Z,5.70
2018-08-28T06:14:18.253Z,5.80
2018-08-28T06:16:46.387Z,5.97
2018-08-28T06:19:14.672Z,6.07
2018-08-28T06:21:42.829Z,5.67
2018-08-28T06:24:10.978Z,6.57
2018-08-28T06:26:39.145Z,6.17
2018-08-28T06:29:08.193Z,6.03
2018-08-28T06:31:36.304Z,5.67
2018-08-28T06:34:04.556Z,7.03
2018-08-28T06:36:32.556Z,6.50
2018-08-28T06:39:00.695Z,5.93
2018-08-28T06:41:29.015Z,6.12
2018-08-28T06:43:57.145Z,6.37
2018-08-28T06:46:25.243Z,5.10
2018-08-28T06:48:53.351Z,5.60
2018-08-28T06:51:21.432Z,6.03
2018-08-28T06:53:49.588Z,5.77
2018-08-28T06:56:17.665Z,6.55
2018-08-28T06:58:45.776Z,5.58
2018-08-28T07:01:13.920Z,5.62
2018-08-28T07:03:42.195Z,5.80
2018-08-28T07:06:10.257Z,5.97
2018-08-28T07:08:38.404Z,5.40
2018-08-28T07:11:06.587Z,5.57
2018-08-28T07:13:34.742Z,6.72
2018-08-28T07:16:02.861Z,5.10
2018-08-28T07:18:30.969Z,6.23
2018-08-28T07:20:59.213Z,6.33
2018-08-28T07:23:27.916Z,5.87
2018-08-28T07:25:56.059Z,6.20
2018-08-28T07:28:24.244Z,5.53
2018-08-28T07:30:52.377Z,7.30
2018-08-28T07:33:20.478Z,6.50
2018-08-28T07:35:48.584Z,4.83
2018-08-28T07:38:16.678Z,5.83
2018-08-28T07:40:44.802Z,5.00
2018-08-28T07:43:12.930Z,6.60
2018-08-28T07:45:41.037Z,6.23
2018-08-28T07:48:09.222Z,5.70
2018-08-28T07:50:37.320Z,6.10
2018-08-28T07:53:05.608Z,5.30
2018-08-28T07:55:33.749Z,5.97
2018-08-28T07:58:01.890Z,5.80
2018-08-28T08:00:30.007Z,5.23
2018-08-28T08:02:58.157Z,5.00
2018-08-28T08:05:26.325Z,5.10
2018-08-28T08:07:54.504Z,5.15
2018-08-28T08:10:22.692Z,6.00
2018-08-28T08:12:50.781Z,5.10
2018-08-28T08:15:18.976Z,5.70
2018-08-28T08:17:47.157Z,5.20
2018-08-28T08:20:15.253Z,5.33
2018-08-28T08:22:43.918Z,5.03
2018-08-28T08:25:12.045Z,5.40
2018-08-28T08:27:40.189Z,5.07
2018-08-28T08:30:08.333Z,4.60
2018-08-28T08:32:36.532Z,5.10
2018-08-28T08:35:04.691Z,4.20
2018-08-28T08:37:32.847Z,4.60
2018-08-28T08:40:01.102Z,4.10
2018-08-28T08:42:29.245Z,5.07
2018-08-28T08:44:57.426Z,4.30
2018-08-28T08:47:25.545Z,4.75
2018-08-28T08:49:53.823Z,3.90
2018-08-28T08:52:21.979Z,4.40
2018-08-28T08:54:50.195Z,4.90
2018-08-28T08:57:18.323Z,4.30
2018-08-28T08:59:46.361Z,5.05
2018-08-28T09:02:14.512Z,3.70
2018-08-28T09:04:42.819Z,3.67
2018-08-28T09:07:10.944Z,4.17
2018-08-28T09:09:39.225Z,4.30
2018-08-28T09:12:07.335Z,3.30
2018-08-28T09:14:35.920Z,4.03
2018-08-28T09:17:04.016Z,5.27
2018-08-28T09:19:32.121Z,3.23
2018-08-28T09:22:00.220Z,4.20
2018-08-28T09:24:28.397Z,4.10
2018-08-28T09:26:56.519Z,4.03
2018-08-28T09:29:24.680Z,3.45
2018-08-28T09:31:52.820Z,3.50
2018-08-28T09:34:20.925Z,3.60
2018-08-28T09:36:49.009Z,3.45
2018-08-28T09:39:17.165Z,3.62
2018-08-28T09:41:45.260Z,3.17
2018-08-28T09:44:13.402Z,3.17
2018-08-28T09:46:41.597Z,3.57
2018-08-28T09:49:09.723Z,3.80
2018-08-28T09:51:37.836Z,3.07
2018-08-28T09:54:05.979Z,3.30
2018-08-28T09:56:34.210Z,3.12
2018-08-28T09:59:02.248Z,3.70
2018-08-28T10:01:35.869Z,3.15
2018-08-28T10:04:03.999Z,3.43
2018-08-28T10:06:32.277Z,2.63
2018-08-28T10:09:00.383Z,2.57
2018-08-28T10:11:28.616Z,3.03
2018-08-28T10:13:56.942Z,2.80
2018-08-28T10:16:25.065Z,3.10
2018-08-28T10:18:53.671Z,2.70
2018-08-28T10:21:21.813Z,3.03
2018-08-28T10:23:49.936Z,2.85
2018-08-28T10:26:18.051Z,2.87
2018-08-28T10:28:46.136Z,3.10
2018-08-28T10:31:14.256Z,2.50
2018-08-28T10:33:42.367Z,3.20
2018-08-28T10:36:10.591Z,3.60
2018-08-28T10:38:38.700Z,3.17
2018-08-28T10:41:06.876Z,2.77
2018-08-28T10:43:35.032Z,3.30
2018-08-28T10:46:03.911Z,2.67
2018-08-28T10:48:31.982Z,2.58
2018-08-28T10:51:00.095Z,2.20
2018-08-28T10:53:28.759Z,3.40
2018-08-28T10:55:56.993Z,2.92
2018-08-28T10:58:25.076Z,2.17
2018-08-28T11:00:53.198Z,2.20
2018-08-28T11:03:21.363Z,2.80
2018-08-28T11:05:49.511Z,2.27
2018-08-28T11:08:17.637Z,2.33
2018-08-28T11:10:45.774Z,2.57
2018-08-28T11:13:14.548Z,2.52
2018-08-28T11:15:42.706Z,2.70
2018-08-28T11:18:10.836Z,2.97
2018-08-28T11:20:38.995Z,2.57
2018-08-28T11:28:07.140Z,2.37
2018-08-28T11:30:35.271Z,2.40
2018-08-28T11:33:03.446Z,2.47
2018-08-28T11:35:31.577Z,2.37
2018-08-28T11:37:59.717Z,2.60
2018-08-28T11:40:27.831Z,2.37
2018-08-28T11:42:55.928Z,2.60
2018-08-28T11:45:24.092Z,2.37
2018-08-28T11:47:52.199Z,2.40
2018-08-28T11:50:20.321Z,2.20
2018-08-28T11:52:48.372Z,2.73
2018-08-28T11:55:16.472Z,3.30
2018-08-28T11:57:44.607Z,3.58
2018-08-28T12:00:13.337Z,3.27
2018-08-28T12:02:41.406Z,2.87
2018-08-28T12:05:09.568Z,2.70
2018-08-28T12:07:37.611Z,2.70
2018-08-28T12:10:05.936Z,2.47
2018-08-28T12:12:34.058Z,2.90
2018-08-28T12:15:02.189Z,2.73
2018-08-28T12:17:30.295Z,3.30
2018-08-28T12:19:58.414Z,3.60
2018-08-28T12:22:26.573Z,3.00
2018-08-28T12:24:54.648Z,2.90
2018-08-28T12:27:22.753Z,2.35
2018-08-28T12:29:51.000Z,3.40
2018-08-28T12:32:19.126Z,2.70
2018-08-28T12:34:47.320Z,3.20
2018-08-28T12:37:15.589Z,2.90
2018-08-28T12:39:43.787Z,3.22
2018-08-28T12:42:11.913Z,3.10
2018-08-28T12:44:40.037Z,3.20
2018-08-28T12:47:08.219Z,3.35
2018-08-28T12:49:36.357Z,3.00
2018-08-28T12:52:04.527Z,2.80
2018-08-28T12:54:32.674Z,2.97
2018-08-28T12:57:00.804Z,3.00
2018-08-28T12:59:28.930Z,2.97
2018-08-28T13:01:57.041Z,3.03
2018-08-28T13:04:25.996Z,2.50
2018-08-28T13:06:54.133Z,3.10
2018-08-28T13:09:22.213Z,3.33
2018-08-28T13:11:50.299Z,2.70
2018-08-28T13:14:18.675Z,2.50
2018-08-28T13:16:46.812Z,2.27
2018-08-28T13:19:14.943Z,3.10
2018-08-28T13:21:43.205Z,2.83
2018-08-28T13:24:11.308Z,3.00
2018-08-28T13:26:39.385Z,3.03
2018-08-28T13:29:07.500Z,3.00
2018-08-28T13:31:35.652Z,2.90
2018-08-28T13:34:03.736Z,3.10
2018-08-28T13:36:31.903Z,3.00
2018-08-28T13:39:00.008Z,2.77
2018-08-28T13:41:28.107Z,3.27
2018-08-28T13:43:56.254Z,3.47
2018-08-28T13:46:24.775Z,3.30
2018-08-28T13:48:53.009Z,3.42
2018-08-28T13:51:27.819Z,3.30
2018-08-28T13:53:56.034Z,3.10
2018-08-28T13:56:24.174Z,2.97
2018-08-28T13:58:52.294Z,2.70
2018-08-28T14:01:20.375Z,2.90
2018-08-28T14:03:48.468Z,2.92
2018-08-28T14:06:16.601Z,2.93
2018-08-28T14:08:44.768Z,3.10
2018-08-28T14:11:12.868Z,2.85
2018-08-28T14:13:41.078Z,2.50
2018-08-28T14:16:09.195Z,2.95
2018-08-28T14:18:37.297Z,3.00
2018-08-28T14:21:05.430Z,2.52
2018-08-28T14:23:33.563Z,3.50
2018-08-28T14:26:01.685Z,2.85
2018-08-28T14:28:29.918Z,2.80
2018-08-28T14:30:58.069Z,2.60
2018-08-28T14:33:26.195Z,3.53
2018-08-28T14:35:54.320Z,3.33
2018-08-28T14:38:22.464Z,3.10
2018-08-28T14:40:50.590Z,3.20
2018-08-28T14:43:18.794Z,3.83
2018-08-28T14:45:47.520Z,2.67
2018-08-28T14:48:15.756Z,2.90
2018-08-28T14:50:43.956Z,3.50
2018-08-28T14:53:12.749Z,3.37
2018-08-28T14:55:40.854Z,3.30
2018-08-28T14:58:09.940Z,3.00
2018-08-28T15:00:38.106Z,2.70
2018-08-28T15:03:06.329Z,3.10
2018-08-28T15:05:34.698Z,2.93
2018-08-28T15:08:03.275Z,2.40
2018-08-28T15:10:31.460Z,3.70
2018-08-28T15:12:59.557Z,2.80
2018-08-28T15:15:27.809Z,2.70
2018-08-28T15:17:55.924Z,3.30
2018-08-28T15:20:24.095Z,3.40
2018-08-28T15:22:52.212Z,2.80
2018-08-28T15:25:20.399Z,3.50
2018-08-28T15:27:48.530Z,3.90
2018-08-28T15:30:16.655Z,2.67
2018-08-28T15:32:44.862Z,4.10
2018-08-28T15:35:12.988Z,2.93
2018-08-28T15:37:41.100Z,3.53
2018-08-28T15:40:09.224Z,3.60
2018-08-28T15:42:37.392Z,3.80
2018-08-28T15:45:05.616Z,4.20
2018-08-28T15:47:33.730Z,3.83
2018-08-28T15:50:01.894Z,3.20
2018-08-28T15:52:30.071Z,3.40
2018-08-28T15:54:58.267Z,3.47
2018-08-28T15:57:26.392Z,3.60
2018-08-28T15:59:54.561Z,3.20
2018-08-28T16:02:22.808Z,3.07
2018-08-28T16:04:50.992Z,3.07
2018-08-28T16:07:19.128Z,3.40
2018-08-28T16:09:47.272Z,3.60
2018-08-28T16:12:15.403Z,3.47
2018-08-28T16:14:43.531Z,3.50
2018-08-28T16:17:11.675Z,4.72
2018-08-28T16:19:39.839Z,3.63
2018-08-28T16:22:08.011Z,3.57
2018-08-28T16:24:36.148Z,3.90
2018-08-28T16:27:04.290Z,3.67
2018-08-28T16:29:32.492Z,3.65
2018-08-28T16:32:00.621Z,4.37
2018-08-28T16:34:28.800Z,3.77
2018-08-28T16:36:56.953Z,4.03
2018-08-28T16:39:25.086Z,3.90
2018-08-28T16:41:53.222Z,4.12
2018-08-28T16:44:21.334Z,3.70
2018-08-28T16:47:52.638Z,3.17
2018-08-28T16:50:20.851Z,3.63
2018-08-28T16:52:48.877Z,3.23
2018-08-28T16:55:17.016Z,3.37
2018-08-28T16:57:45.122Z,3.37
2018-08-28T17:00:13.235Z,3.50
2018-08-28T17:02:41.356Z,3.33
2018-08-28T17:05:09.490Z,3.10
2018-08-28T17:07:37.622Z,3.43
2018-08-28T17:10:05.824Z,3.23
2018-08-28T17:12:33.941Z,3.60
2018-08-28T17:15:02.121Z,2.97
2018-08-28T17:17:30.219Z,3.50
2018-08-28T17:19:58.310Z,3.30
2018-08-28T17:22:26.467Z,3.30
2018-08-28T17:24:54.643Z,4.00
2018-08-28T17:27:22.874Z,3.37
2018-08-28T17:29:51.011Z,3.80
2018-08-28T17:32:19.153Z,4.63
2018-08-28T17:34:47.341Z,4.80
2018-08-28T17:37:15.535Z,3.10
2018-08-28T17:39:43.687Z,3.30
2018-08-28T17:42:11.817Z,3.72
2018-08-28T17:44:40.540Z,3.43
2018-08-28T17:47:08.680Z,3.60
2018-08-28T17:49:36.809Z,3.40
2018-08-28T17:52:04.921Z,3.87
2018-08-28T17:54:33.040Z,3.47
2018-08-28T17:57:01.200Z,4.13
2018-08-28T17:59:29.286Z,4.27
2018-08-28T18:01:57.425Z,4.10
2018-08-28T18:04:25.614Z,4.00
2018-08-28T18:06:53.741Z,3.93
2018-08-28T18:09:21.868Z,3.40
2018-08-28T18:11:50.038Z,4.17
2018-08-28T18:14:18.211Z,3.80
2018-08-28T18:16:46.299Z,3.90
2018-08-28T18:19:14.396Z,4.00
2018-08-28T18:21:42.517Z,3.60
2018-08-28T18:24:10.640Z,2.93
2018-08-28T18:26:38.811Z,3.10
2018-08-28T18:29:13.782Z,3.63
2018-08-28T18:31:41.893Z,4.05
2018-08-28T18:34:10.026Z,3.47
2018-08-28T18:36:38.142Z,4.37
2018-08-28T18:39:07.356Z,3.83
2018-08-28T18:41:35.578Z,5.25
2018-08-28T18:44:03.586Z,3.97
2018-08-28T18:46:31.799Z,3.53
2018-08-28T18:48:59.889Z,3.70
2018-08-28T18:51:28.067Z,3.93
2018-08-28T18:53:56.176Z,4.57
2018-08-28T18:56:24.255Z,3.53
2018-08-28T18:58:52.391Z,3.63
2018-08-28T19:01:20.529Z,3.83
2018-08-28T19:03:48.640Z,3.57
2018-08-28T19:06:16.773Z,3.37
2018-08-28T19:08:44.902Z,3.93
2018-08-28T19:11:12.971Z,4.60
2018-08-28T19:13:41.078Z,3.90
2018-08-28T19:16:09.734Z,3.53
2018-08-28T19:18:37.980Z,4.60
2018-08-28T19:21:06.128Z,4.40
2018-08-28T19:23:34.290Z,3.73
2018-08-28T19:26:02.607Z,4.25
2018-08-28T19:28:30.820Z,4.90
2018-08-28T19:30:59.154Z,3.80
2018-08-28T19:33:27.611Z,4.83
2018-08-28T19:35:55.830Z,4.60
2018-08-28T19:38:23.945Z,4.37
2018-08-28T19:40:52.064Z,4.37
2018-08-28T19:43:20.277Z,4.78
2018-08-28T19:45:48.407Z,4.15
2018-08-28T19:48:16.564Z,4.07
2018-08-28T19:50:44.750Z,4.63
2018-08-28T19:53:12.931Z,4.70
2018-08-28T19:55:41.170Z,4.93
2018-08-28T19:58:09.323Z,4.23
2018-08-28T20:00:37.506Z,4.30
2018-08-28T20:03:05.667Z,3.93
2018-08-28T20:05:33.898Z,4.17
2018-08-28T20:08:02.172Z,4.40
2018-08-28T20:10:30.326Z,4.20
2018-08-28T20:12:58.490Z,4.80
2018-08-28T20:15:26.609Z,4.50
2018-08-28T20:17:54.863Z,3.87
2018-08-28T20:20:23.027Z,4.33
2018-08-28T20:22:51.171Z,4.57
2018-08-28T20:25:19.301Z,4.13
2018-08-28T20:27:47.447Z,4.40
2018-08-28T20:30:15.594Z,4.10
2018-08-28T20:32:43.779Z,4.53
2018-08-28T20:35:11.895Z,4.47
2018-08-28T20:37:40.158Z,4.73
2018-08-28T20:40:08.353Z,4.70
2018-08-28T20:42:36.552Z,3.70
2018-08-28T20:45:04.792Z,4.62
2018-08-28T20:47:32.939Z,5.27
2018-08-28T20:50:01.115Z,4.30
2018-08-28T20:52:29.275Z,4.70
2018-08-28T20:54:57.452Z,4.43
2018-08-28T20:57:25.623Z,4.42
2018-08-28T20:59:53.767Z,4.93
2018-08-28T21:02:22.018Z,3.97
2018-08-28T21:04:50.178Z,4.10
2018-08-28T21:07:18.380Z,5.10
2018-08-28T21:09:46.629Z,4.30
2018-08-28T21:12:14.818Z,3.93
2018-08-28T21:14:42.895Z,4.23
2018-08-28T21:17:10.960Z,4.43
2018-08-28T21:19:39.078Z,4.23
2018-08-28T21:22:07.180Z,3.87
2018-08-28T21:24:35.294Z,4.15
2018-08-28T21:27:03.395Z,4.10
2018-08-28T21:29:31.619Z,4.80
2018-08-28T21:31:59.674Z,4.60
2018-08-28T21:34:27.812Z,4.70
2018-08-28T21:36:55.964Z,4.67
2018-08-28T21:39:24.115Z,4.60
2018-08-28T21:41:52.252Z,4.17
2018-08-28T21:44:20.391Z,4.73
2018-08-28T21:46:48.549Z,4.60
2018-08-28T21:49:16.716Z,4.33
2018-08-28T21:51:44.820Z,4.85
2018-08-28T21:54:12.909Z,4.63
2018-08-28T21:56:41.083Z,4.78
2018-08-28T21:59:09.196Z,5.30
2018-08-28T22:01:37.297Z,4.50
2018-08-28T22:04:05.396Z,4.57
2018-08-28T22:06:38.748Z,4.45
2018-08-28T22:09:06.835Z,4.35
2018-08-28T22:11:35.284Z,4.07
2018-08-28T22:14:03.464Z,4.83
2018-08-28T22:16:31.592Z,4.70
2018-08-28T22:18:59.795Z,5.00
2018-08-28T22:21:27.897Z,4.47
2018-08-28T22:23:55.994Z,6.20
2018-08-28T22:26:24.091Z,4.47
2018-08-28T22:28:52.200Z,5.13
2018-08-28T22:31:20.302Z,4.33
2018-08-28T22:33:48.417Z,5.05
2018-08-28T22:36:16.540Z,5.00
2018-08-28T22:38:44.678Z,4.47
2018-08-28T22:41:12.837Z,5.57
2018-08-28T22:43:42.127Z,5.62
2018-08-28T22:46:10.285Z,4.83
2018-08-28T22:48:38.527Z,4.93
2018-08-28T22:51:06.658Z,4.17
2018-08-28T22:53:34.761Z,4.80
2018-08-28T22:56:02.900Z,4.20
2018-08-28T22:58:31.037Z,5.93
2018-08-28T23:00:59.151Z,4.58
2018-08-28T23:03:27.230Z,4.80
2018-08-28T23:05:55.305Z,4.30
2018-08-28T23:08:23.460Z,4.83
2018-08-28T23:10:51.626Z,4.90
2018-08-28T23:13:19.741Z,4.87
2018-08-28T23:15:47.831Z,4.77
2018-08-28T23:18:15.946Z,5.15
2018-08-28T23:20:44.076Z,5.75
2018-08-28T23:23:12.204Z,5.90
2018-08-28T23:25:40.305Z,5.00
2018-08-28T23:28:08.433Z,5.25
2018-08-28T23:30:36.597Z,5.37
2018-08-28T23:33:04.708Z,5.40
2018-08-28T23:35:32.851Z,5.10
2018-08-28T23:38:00.974Z,5.70
2018-08-28T23:40:29.094Z,5.75
2018-08-28T23:42:58.218Z,5.22
2018-08-28T23:45:26.318Z,5.67
2018-08-28T23:47:54.411Z,4.47
2018-08-28T23:50:22.558Z,4.47
2018-08-28T23:52:50.739Z,5.12
2018-08-28T23:55:18.899Z,4.62
2018-08-28T23:57:47.047Z,5.60
